sensor_id;sensor_type;location;lat;lon;timestamp;pressure;altitude;pressure_sealevel;temperature;humidity
75219;BME280;63801;49.414;19.474;2022-12-07T00:01:07;93262.97;;;0.09;81.85
75219;BME280;63801;49.414;19.474;2022-12-07T00:03:08;93262.97;;;0.09;81.87
75219;BME280;63801;49.414;19.474;2022-12-07T00:05:08;93252.38;;;0.09;81.56
75219;BME280;63801;49.414;19.474;2022-12-07T00:07:08;93252.69;;;0.08;81.81
75219;BME280;63801;49.414;19.474;2022-12-07T00:09:11;93255.81;;;0.10;81.82
75219;BME280;63801;49.414;19.474;2022-12-07T00:11:15;93257.09;;;0.12;81.74
75219;BME280;63801;49.414;19.474;2022-12-07T00:13:15;93258.66;;;0.13;81.92
75219;BME280;63801;49.414;19.474;2022-12-07T00:15:16;93252.59;;;0.13;81.85
75219;BME280;63801;49.414;19.474;2022-12-07T00:17:16;93235.19;;;0.07;81.86
75219;BME280;63801;49.414;19.474;2022-12-07T00:19:16;93226.28;;;0.03;81.74
75219;BME280;63801;49.414;19.474;2022-12-07T00:21:19;93241.19;;;0.12;81.96
75219;BME280;63801;49.414;19.474;2022-12-07T00:23:20;93248.44;;;0.20;81.78
75219;BME280;63801;49.414;19.474;2022-12-07T00:25:20;93249.22;;;0.21;81.48
75219;BME280;63801;49.414;19.474;2022-12-07T00:27:21;93247.38;;;0.21;81.96
75219;BME280;63801;49.414;19.474;2022-12-07T00:29:21;93246.78;;;0.24;81.92
75219;BME280;63801;49.414;19.474;2022-12-07T00:31:25;93227.63;;;0.14;82.14
75219;BME280;63801;49.414;19.474;2022-12-07T00:33:26;93233.16;;;0.17;82.07
75219;BME280;63801;49.414;19.474;2022-12-07T00:35:28;93233.00;;;0.22;82.43
75219;BME280;63801;49.414;19.474;2022-12-07T00:37:28;93236.84;;;0.30;82.29
75219;BME280;63801;49.414;19.474;2022-12-07T00:39:29;93233.59;;;0.33;82.45
75219;BME280;63801;49.414;19.474;2022-12-07T00:41:29;93238.63;;;0.34;82.45
75219;BME280;63801;49.414;19.474;2022-12-07T00:43:30;93233.31;;;0.34;82.46
75219;BME280;63801;49.414;19.474;2022-12-07T00:45:30;93230.16;;;0.32;82.54
75219;BME280;63801;49.414;19.474;2022-12-07T00:47:31;93221.25;;;0.28;82.56
75219;BME280;63801;49.414;19.474;2022-12-07T00:49:31;93235.88;;;0.39;82.62
75219;BME280;63801;49.414;19.474;2022-12-07T00:51:32;93217.97;;;0.31;82.44
75219;BME280;63801;49.414;19.474;2022-12-07T00:53:36;93229.97;;;0.42;82.30
75219;BME280;63801;49.414;19.474;2022-12-07T00:55:37;93234.66;;;0.45;82.37
75219;BME280;63801;49.414;19.474;2022-12-07T00:57:37;93229.53;;;0.49;82.50
75219;BME280;63801;49.414;19.474;2022-12-07T00:59:38;93223.16;;;0.50;82.20
75219;BME280;63801;49.414;19.474;2022-12-07T01:01:38;93218.06;;;0.40;82.12
75219;BME280;63801;49.414;19.474;2022-12-07T01:03:38;93227.66;;;0.50;82.34
75219;BME280;63801;49.414;19.474;2022-12-07T01:05:39;93229.75;;;0.53;82.47
75219;BME280;63801;49.414;19.474;2022-12-07T01:07:39;93233.19;;;0.53;82.28
75219;BME280;63801;49.414;19.474;2022-12-07T01:09:39;93226.78;;;0.54;82.38
75219;BME280;63801;49.414;19.474;2022-12-07T01:11:40;93226.97;;;0.58;82.34
75219;BME280;63801;49.414;19.474;2022-12-07T01:13:41;93228.53;;;0.59;82.27
75219;BME280;63801;49.414;19.474;2022-12-07T01:15:42;93223.03;;;0.55;82.22
75219;BME280;63801;49.414;19.474;2022-12-07T01:17:43;93211.66;;;0.55;82.18
75219;BME280;63801;49.414;19.474;2022-12-07T01:19:43;93211.47;;;0.51;82.30
75219;BME280;63801;49.414;19.474;2022-12-07T01:21:44;93225.88;;;0.59;82.31
75219;BME280;63801;49.414;19.474;2022-12-07T01:23:44;93215.19;;;0.50;82.38
75219;BME280;63801;49.414;19.474;2022-12-07T01:25:44;93213.34;;;0.51;82.34
75219;BME280;63801;49.414;19.474;2022-12-07T01:27:45;93209.50;;;0.57;82.59
75219;BME280;63801;49.414;19.474;2022-12-07T01:29:46;93211.84;;;0.58;82.31
75219;BME280;63801;49.414;19.474;2022-12-07T01:31:48;93194.97;;;0.54;82.28
75219;BME280;63801;49.414;19.474;2022-12-07T01:33:51;93176.16;;;0.42;82.23
75219;BME280;63801;49.414;19.474;2022-12-07T01:35:52;93200.81;;;0.65;82.28
75219;BME280;63801;49.414;19.474;2022-12-07T01:37:52;93196.88;;;0.62;82.25
75219;BME280;63801;49.414;19.474;2022-12-07T01:39:52;93193.94;;;0.64;82.44
75219;BME280;63801;49.414;19.474;2022-12-07T01:41:53;93196.88;;;0.62;82.43
75219;BME280;63801;49.414;19.474;2022-12-07T01:46:11;93200.81;;;0.65;82.41
75219;BME280;63801;49.414;19.474;2022-12-07T01:48:15;93205.06;;;0.66;82.42
75219;BME280;63801;49.414;19.474;2022-12-07T01:50:17;93198.19;;;0.65;82.72
75219;BME280;63801;49.414;19.474;2022-12-07T01:52:30;93200.81;;;0.65;82.72
75219;BME280;63801;49.414;19.474;2022-12-07T01:54:32;93179.03;;;0.54;82.33
75219;BME280;63801;49.414;19.474;2022-12-07T01:56:34;93197.28;;;0.69;82.62
75219;BME280;63801;49.414;19.474;2022-12-07T01:58:34;93187.44;;;0.70;82.64
75219;BME280;63801;49.414;19.474;2022-12-07T02:00:35;93188.81;;;0.67;82.46
75219;BME280;63801;49.414;19.474;2022-12-07T02:03:03;93191.19;;;0.69;82.71
75219;BME280;63801;49.414;19.474;2022-12-07T02:05:05;93191.34;;;0.72;82.68
75219;BME280;63801;49.414;19.474;2022-12-07T02:07:06;93191.06;;;0.74;82.50
75219;BME280;63801;49.414;19.474;2022-12-07T02:09:06;93192.66;;;0.75;82.57
75219;BME280;63801;49.414;19.474;2022-12-07T02:11:07;93180.69;;;0.64;82.51
75219;BME280;63801;49.414;19.474;2022-12-07T02:13:10;93191.53;;;0.76;82.57
75219;BME280;63801;49.414;19.474;2022-12-07T02:15:11;93189.22;;;0.74;82.48
75219;BME280;63801;49.414;19.474;2022-12-07T02:17:20;93190.47;;;0.77;82.79
75219;BME280;63801;49.414;19.474;2022-12-07T02:21:51;93183.59;;;0.76;82.71
75219;BME280;63801;49.414;19.474;2022-12-07T02:26:47;93184.06;;;0.78;82.60
75219;BME280;63801;49.414;19.474;2022-12-07T02:31:03;93175.84;;;0.79;82.67
75219;BME280;63801;49.414;19.474;2022-12-07T02:33:14;93176.28;;;0.81;82.75
75219;BME280;63801;49.414;19.474;2022-12-07T02:35:22;93177.59;;;0.84;82.37
75219;BME280;63801;49.414;19.474;2022-12-07T02:37:36;93179.31;;;0.88;82.43
75219;BME280;63801;49.414;19.474;2022-12-07T02:39:46;93134.41;;;0.70;82.32
75219;BME280;63801;49.414;19.474;2022-12-07T02:41:53;93171.22;;;0.94;82.34
75219;BME280;63801;49.414;19.474;2022-12-07T02:43:58;93182.03;;;0.97;82.39
75219;BME280;63801;49.414;19.474;2022-12-07T02:46:08;93172.97;;;0.98;82.02
75219;BME280;63801;49.414;19.474;2022-12-07T02:48:12;93167.06;;;1.01;82.22
75219;BME280;63801;49.414;19.474;2022-12-07T02:50:13;93175.50;;;1.03;82.45
75219;BME280;63801;49.414;19.474;2022-12-07T02:52:14;93173.63;;;1.04;82.16
75219;BME280;63801;49.414;19.474;2022-12-07T02:54:16;93181.78;;;1.07;82.13
75219;BME280;63801;49.414;19.474;2022-12-07T02:59:22;93187.13;;;1.16;82.11
75219;BME280;63801;49.414;19.474;2022-12-07T03:06:42;93175.91;;;1.19;81.98
75219;BME280;63801;49.414;19.474;2022-12-07T03:11:03;93190.88;;;1.37;82.11
75219;BME280;63801;49.414;19.474;2022-12-07T03:13:11;93172.69;;;1.30;82.05
75219;BME280;63801;49.414;19.474;2022-12-07T03:15:24;93183.66;;;1.38;82.24
75219;BME280;63801;49.414;19.474;2022-12-07T03:17:28;93190.25;;;1.40;81.92
75219;BME280;63801;49.414;19.474;2022-12-07T03:19:33;93172.69;;;1.30;81.85
75219;BME280;63801;49.414;19.474;2022-12-07T03:21:45;93180.41;;;1.41;82.12
75219;BME280;63801;49.414;19.474;2022-12-07T03:23:51;93167.38;;;1.30;81.80
75219;BME280;63801;49.414;19.474;2022-12-07T03:25:56;93171.91;;;1.30;81.85
75219;BME280;63801;49.414;19.474;2022-12-07T03:28:01;93186.00;;;1.39;81.74
75219;BME280;63801;49.414;19.474;2022-12-07T03:30:09;93178.84;;;1.40;81.78
75219;BME280;63801;49.414;19.474;2022-12-07T03:34:58;93178.84;;;1.40;81.80
75219;BME280;63801;49.414;19.474;2022-12-07T03:37:35;93171.94;;;1.39;81.80
75219;BME280;63801;49.414;19.474;2022-12-07T03:39:45;93179.47;;;1.37;81.76
75219;BME280;63801;49.414;19.474;2022-12-07T03:41:49;93174.72;;;1.33;82.11
75219;BME280;63801;49.414;19.474;2022-12-07T03:43:50;93175.53;;;1.34;82.05
75219;BME280;63801;49.414;19.474;2022-12-07T03:46:11;93179.59;;;1.31;81.83
75219;BME280;63801;49.414;19.474;2022-12-07T03:48:36;93180.31;;;1.23;82.02
75219;BME280;63801;49.414;19.474;2022-12-07T03:50:50;93176.88;;;1.23;82.10
75219;BME280;63801;49.414;19.474;2022-12-07T03:53:09;93177.16;;;1.21;82.09
75219;BME280;63801;49.414;19.474;2022-12-07T03:55:18;93171.31;;;1.11;81.95
75219;BME280;63801;49.414;19.474;2022-12-07T03:57:20;93180.75;;;1.17;82.09
75219;BME280;63801;49.414;19.474;2022-12-07T03:59:23;93174.97;;;1.15;82.25
75219;BME280;63801;49.414;19.474;2022-12-07T04:01:24;93181.22;;;1.19;82.22
75219;BME280;63801;49.414;19.474;2022-12-07T04:03:24;93172.78;;;1.17;81.79
75219;BME280;63801;49.414;19.474;2022-12-07T04:05:25;93160.28;;;1.17;82.13
75219;BME280;63801;49.414;19.474;2022-12-07T04:07:26;93173.91;;;1.24;82.00
75219;BME280;63801;49.414;19.474;2022-12-07T04:09:26;93164.53;;;1.18;82.22
75219;BME280;63801;49.414;19.474;2022-12-07T04:11:26;93145.84;;;1.01;82.08
75219;BME280;63801;49.414;19.474;2022-12-07T04:13:27;93171.69;;;1.18;81.96
75219;BME280;63801;49.414;19.474;2022-12-07T04:15:27;93144.28;;;1.00;82.09
75219;BME280;63801;49.414;19.474;2022-12-07T04:17:28;93168.09;;;1.14;81.92
75219;BME280;63801;49.414;19.474;2022-12-07T04:19:31;93162.78;;;1.14;82.20
75219;BME280;63801;49.414;19.474;2022-12-07T04:21:31;93166.00;;;1.11;82.11
75219;BME280;63801;49.414;19.474;2022-12-07T04:23:32;93163.69;;;1.09;82.38
75219;BME280;63801;49.414;19.474;2022-12-07T04:25:32;93159.56;;;1.03;82.27
75219;BME280;63801;49.414;19.474;2022-12-07T04:27:32;93162.41;;;1.07;82.34
75219;BME280;63801;49.414;19.474;2022-12-07T04:29:33;93129.81;;;0.84;82.35
75219;BME280;63801;49.414;19.474;2022-12-07T04:31:34;93162.09;;;1.08;82.40
75219;BME280;63801;49.414;19.474;2022-12-07T04:33:35;93150.41;;;1.09;82.26
75219;BME280;63801;49.414;19.474;2022-12-07T04:35:36;93141.00;;;1.03;82.17
75219;BME280;63801;49.414;19.474;2022-12-07T04:37:36;93152.56;;;1.07;82.38
75219;BME280;63801;49.414;19.474;2022-12-07T04:39:39;93158.25;;;1.14;82.25
75219;BME280;63801;49.414;19.474;2022-12-07T04:41:39;93145.09;;;1.09;82.21
75219;BME280;63801;49.414;19.474;2022-12-07T04:43:39;93152.31;;;1.17;82.40
75219;BME280;63801;49.414;19.474;2022-12-07T04:45:45;93161.88;;;1.18;82.29
75219;BME280;63801;49.414;19.474;2022-12-07T04:47:45;93152.81;;;1.19;82.17
75219;BME280;63801;49.414;19.474;2022-12-07T04:49:46;93146.84;;;1.14;82.14
75219;BME280;63801;49.414;19.474;2022-12-07T04:51:47;93154.19;;;1.17;82.30
75219;BME280;63801;49.414;19.474;2022-12-07T04:53:47;93152.81;;;1.19;82.06
75219;BME280;63801;49.414;19.474;2022-12-07T04:55:48;93149.19;;;1.15;82.37
75219;BME280;63801;49.414;19.474;2022-12-07T04:57:49;93155.28;;;1.16;82.10
75219;BME280;63801;49.414;19.474;2022-12-07T04:59:49;93148.22;;;1.11;81.87
75219;BME280;63801;49.414;19.474;2022-12-07T05:01:49;93152.44;;;1.12;82.32
75219;BME280;63801;49.414;19.474;2022-12-07T05:03:50;93141.91;;;0.99;82.39
75219;BME280;63801;49.414;19.474;2022-12-07T05:05:50;93151.50;;;1.08;82.40
75219;BME280;63801;49.414;19.474;2022-12-07T05:07:51;93151.31;;;1.05;82.52
75219;BME280;63801;49.414;19.474;2022-12-07T05:09:51;93138.97;;;1.00;82.61
75219;BME280;63801;49.414;19.474;2022-12-07T05:11:51;93160.72;;;1.11;82.52
75219;BME280;63801;49.414;19.474;2022-12-07T05:13:52;93146.81;;;1.05;82.47
75219;BME280;63801;49.414;19.474;2022-12-07T05:15:52;93155.72;;;1.09;82.64
75219;BME280;63801;49.414;19.474;2022-12-07T05:17:52;93149.34;;;1.10;82.41
75219;BME280;63801;49.414;19.474;2022-12-07T05:19:53;93154.66;;;1.10;82.39
75219;BME280;63801;49.414;19.474;2022-12-07T05:21:53;93155.41;;;1.11;82.31
75219;BME280;63801;49.414;19.474;2022-12-07T05:23:53;93152.28;;;1.09;82.32
75219;BME280;63801;49.414;19.474;2022-12-07T05:25:53;93154.66;;;1.10;82.70
75219;BME280;63801;49.414;19.474;2022-12-07T05:27:55;93159.34;;;1.13;82.33
75219;BME280;63801;49.414;19.474;2022-12-07T05:29:56;93152.16;;;1.14;82.75
75219;BME280;63801;49.414;19.474;2022-12-07T05:31:56;93159.34;;;1.13;82.41
75219;BME280;63801;49.414;19.474;2022-12-07T05:33:56;93148.78;;;1.00;82.66
75219;BME280;63801;49.414;19.474;2022-12-07T05:35:57;93150.53;;;1.04;82.04
75219;BME280;63801;49.414;19.474;2022-12-07T05:37:57;93141.63;;;1.00;82.14
75219;BME280;63801;49.414;19.474;2022-12-07T05:39:58;93141.50;;;1.05;82.46
75219;BME280;63801;49.414;19.474;2022-12-07T05:41:58;93159.94;;;1.10;82.30
75219;BME280;63801;49.414;19.474;2022-12-07T05:44:14;93146.81;;;1.05;82.21
75219;BME280;63801;49.414;19.474;2022-12-07T05:46:14;93162.09;;;1.08;82.36
75219;BME280;63801;49.414;19.474;2022-12-07T05:48:14;93157.59;;;1.09;82.25
75219;BME280;63801;49.414;19.474;2022-12-07T05:50:15;93147.38;;;1.02;82.63
75219;BME280;63801;49.414;19.474;2022-12-07T05:52:15;93161.66;;;1.06;82.47
75219;BME280;63801;49.414;19.474;2022-12-07T05:54:16;93141.75;;;0.95;82.42
75219;BME280;63801;49.414;19.474;2022-12-07T05:56:16;93154.88;;;1.00;82.25
75219;BME280;63801;49.414;19.474;2022-12-07T05:58:16;93158.63;;;0.99;82.72
75219;BME280;63801;49.414;19.474;2022-12-07T06:00:35;93140.91;;;0.86;82.61
75219;BME280;63801;49.414;19.474;2022-12-07T06:02:36;93158.91;;;0.98;82.34
75219;BME280;63801;49.414;19.474;2022-12-07T06:04:38;93158.63;;;0.99;82.44
75219;BME280;63801;49.414;19.474;2022-12-07T06:06:39;93152.22;;;1.00;82.36
75219;BME280;63801;49.414;19.474;2022-12-07T06:08:40;93149.03;;;0.89;82.53
75219;BME280;63801;49.414;19.474;2022-12-07T06:10:40;93155.50;;;0.97;82.15
75219;BME280;63801;49.414;19.474;2022-12-07T06:12:41;93155.97;;;0.99;82.12
75219;BME280;63801;49.414;19.474;2022-12-07T06:14:43;93146.25;;;0.95;82.15
75219;BME280;63801;49.414;19.474;2022-12-07T06:16:44;93149.22;;;0.93;81.89
75219;BME280;63801;49.414;19.474;2022-12-07T06:18:44;93151.88;;;0.93;82.16
75219;BME280;63801;49.414;19.474;2022-12-07T06:20:44;93155.00;;;0.95;82.13
75219;BME280;63801;49.414;19.474;2022-12-07T06:22:45;93143.16;;;0.93;81.99
75219;BME280;63801;49.414;19.474;2022-12-07T06:24:45;93150.44;;;0.87;82.02
75219;BME280;63801;49.414;19.474;2022-12-07T06:26:45;93135.88;;;0.84;82.29
75219;BME280;63801;49.414;19.474;2022-12-07T06:28:46;93151.69;;;0.89;81.95
75219;BME280;63801;49.414;19.474;2022-12-07T06:30:46;93142.34;;;0.92;82.25
75219;BME280;63801;49.414;19.474;2022-12-07T06:32:46;93152.78;;;0.88;82.50
75219;BME280;63801;49.414;19.474;2022-12-07T06:34:47;93148.88;;;0.86;82.54
75219;BME280;63801;49.414;19.474;2022-12-07T06:36:48;93146.50;;;0.84;82.61
75219;BME280;63801;49.414;19.474;2022-12-07T06:38:51;93142.72;;;0.77;82.81
75219;BME280;63801;49.414;19.474;2022-12-07T06:40:52;93154.16;;;0.86;82.69
75219;BME280;63801;49.414;19.474;2022-12-07T06:42:52;93148.81;;;0.77;82.75
75219;BME280;63801;49.414;19.474;2022-12-07T06:44:52;93151.63;;;0.81;82.75
75219;BME280;63801;49.414;19.474;2022-12-07T06:46:54;93155.88;;;0.82;83.00
75219;BME280;63801;49.414;19.474;2022-12-07T06:48:54;93151.81;;;0.84;82.82
75219;BME280;63801;49.414;19.474;2022-12-07T06:50:54;93148.88;;;0.86;82.71
75219;BME280;63801;49.414;19.474;2022-12-07T06:52:55;93136.16;;;0.74;82.66
75219;BME280;63801;49.414;19.474;2022-12-07T06:54:55;93156.34;;;0.84;82.68
75219;BME280;63801;49.414;19.474;2022-12-07T06:56:55;93156.03;;;0.85;82.44
75219;BME280;63801;49.414;19.474;2022-12-07T06:58:56;93161.66;;;0.84;82.24
75219;BME280;63801;49.414;19.474;2022-12-07T07:00:56;93157.91;;;0.85;82.34
75219;BME280;63801;49.414;19.474;2022-12-07T07:02:56;93164.78;;;0.86;82.59
75219;BME280;63801;49.414;19.474;2022-12-07T07:04:57;93150.38;;;0.78;82.18
75219;BME280;63801;49.414;19.474;2022-12-07T07:06:57;93143.34;;;0.74;82.37
75219;BME280;63801;49.414;19.474;2022-12-07T07:08:57;93153.38;;;0.85;82.36
75219;BME280;63801;49.414;19.474;2022-12-07T07:10:58;93162.00;;;0.91;82.56
75219;BME280;63801;49.414;19.474;2022-12-07T07:12:58;93149.03;;;0.89;82.19
75219;BME280;63801;49.414;19.474;2022-12-07T07:14:58;93156.69;;;0.91;82.36
75219;BME280;63801;49.414;19.474;2022-12-07T07:16:59;93165.34;;;0.97;82.42
75219;BME280;63801;49.414;19.474;2022-12-07T07:18:59;93136.25;;;0.92;81.99
75219;BME280;63801;49.414;19.474;2022-12-07T07:20:59;93145.00;;;0.92;82.37
75219;BME280;63801;49.414;19.474;2022-12-07T07:23:01;93163.47;;;0.97;82.30
75219;BME280;63801;49.414;19.474;2022-12-07T07:25:01;93157.53;;;1.00;81.95
75219;BME280;63801;49.414;19.474;2022-12-07T07:27:01;93153.56;;;0.89;81.97
75219;BME280;63801;49.414;19.474;2022-12-07T07:29:02;93160.03;;;0.97;81.88
75219;BME280;63801;49.414;19.474;2022-12-07T07:31:02;93140.84;;;0.77;82.10
75219;BME280;63801;49.414;19.474;2022-12-07T07:33:03;93165.13;;;0.93;81.80
75219;BME280;63801;49.414;19.474;2022-12-07T07:35:04;93168.78;;;0.97;81.95
75219;BME280;63801;49.414;19.474;2022-12-07T07:37:05;93162.97;;;0.95;81.94
75219;BME280;63801;49.414;19.474;2022-12-07T07:39:05;93172.19;;;0.98;81.93
75219;BME280;63801;49.414;19.474;2022-12-07T07:41:05;93151.06;;;0.84;81.90
75219;BME280;63801;49.414;19.474;2022-12-07T07:43:06;93185.16;;;0.99;81.83
75219;BME280;63801;49.414;19.474;2022-12-07T07:45:06;93183.78;;;1.02;81.69
75219;BME280;63801;49.414;19.474;2022-12-07T07:47:07;93178.16;;;1.03;81.74
75219;BME280;63801;49.414;19.474;2022-12-07T07:49:09;93174.72;;;1.03;81.70
75219;BME280;63801;49.414;19.474;2022-12-07T07:51:10;93179.72;;;1.04;81.60
75219;BME280;63801;49.414;19.474;2022-12-07T07:53:10;93184.75;;;1.06;81.26
75219;BME280;63801;49.414;19.474;2022-12-07T07:55:12;93175.63;;;0.98;81.71
75219;BME280;63801;49.414;19.474;2022-12-07T07:57:12;93192.88;;;1.09;81.56
75219;BME280;63801;49.414;19.474;2022-12-07T07:59:12;93191.31;;;1.08;80.98
75219;BME280;63801;49.414;19.474;2022-12-07T08:01:14;93191.47;;;1.12;81.46
75219;BME280;63801;49.414;19.474;2022-12-07T08:03:15;93193.84;;;1.13;81.91
75219;BME280;63801;49.414;19.474;2022-12-07T08:05:16;93188.81;;;1.12;81.33
75219;BME280;63801;49.414;19.474;2022-12-07T08:07:16;93185.69;;;1.10;81.95
75219;BME280;63801;49.414;19.474;2022-12-07T08:09:16;93197.44;;;1.17;81.72
75219;BME280;63801;49.414;19.474;2022-12-07T08:11:16;93205.28;;;1.22;81.68
75219;BME280;63801;49.414;19.474;2022-12-07T08:13:17;93212.22;;;1.32;81.70
75219;BME280;63801;49.414;19.474;2022-12-07T08:15:17;93217.69;;;1.35;81.85
75219;BME280;63801;49.414;19.474;2022-12-07T08:17:18;93201.41;;;1.28;81.84
75219;BME280;63801;49.414;19.474;2022-12-07T08:19:18;93213.34;;;1.40;81.51
75219;BME280;63801;49.414;19.474;2022-12-07T08:21:19;93220.88;;;1.46;81.69
75219;BME280;63801;49.414;19.474;2022-12-07T08:23:19;93216.34;;;1.47;81.52
75219;BME280;63801;49.414;19.474;2022-12-07T08:25:19;93217.75;;;1.44;81.22
75219;BME280;63801;49.414;19.474;2022-12-07T08:27:20;93210.81;;;1.34;81.44
75219;BME280;63801;49.414;19.474;2022-12-07T08:29:23;93215.50;;;1.38;81.50
75219;BME280;63801;49.414;19.474;2022-12-07T08:31:24;93212.09;;;1.37;81.52
75219;BME280;63801;49.414;19.474;2022-12-07T08:33:24;93227.03;;;1.33;81.33
75219;BME280;63801;49.414;19.474;2022-12-07T08:35:25;93211.38;;;1.23;81.46
75219;BME280;63801;49.414;19.474;2022-12-07T08:37:26;93212.63;;;1.25;81.21
75219;BME280;63801;49.414;19.474;2022-12-07T08:39:26;93227.84;;;1.33;81.33
75219;BME280;63801;49.414;19.474;2022-12-07T08:41:26;93231.72;;;1.27;81.47
75219;BME280;63801;49.414;19.474;2022-12-07T08:43:27;93228.44;;;1.30;81.67
75219;BME280;63801;49.414;19.474;2022-12-07T08:45:27;93214.69;;;1.28;81.57
75219;BME280;63801;49.414;19.474;2022-12-07T08:47:27;93211.72;;;1.30;81.73
75219;BME280;63801;49.414;19.474;2022-12-07T08:49:33;93226.47;;;1.36;81.23
75219;BME280;63801;49.414;19.474;2022-12-07T08:51:36;93228.03;;;1.37;81.20
75219;BME280;63801;49.414;19.474;2022-12-07T08:53:38;93229.28;;;1.40;81.07
75219;BME280;63801;49.414;19.474;2022-12-07T08:55:39;93234.09;;;1.38;81.31
75219;BME280;63801;49.414;19.474;2022-12-07T08:57:40;93227.53;;;1.35;81.31
75219;BME280;63801;49.414;19.474;2022-12-07T08:59:40;93227.88;;;1.42;81.33
75219;BME280;63801;49.414;19.474;2022-12-07T09:01:41;93226.97;;;1.47;81.52
75219;BME280;63801;49.414;19.474;2022-12-07T09:03:41;93234.81;;;1.52;81.21
75219;BME280;63801;49.414;19.474;2022-12-07T09:05:41;93226.19;;;1.46;81.06
75219;BME280;63801;49.414;19.474;2022-12-07T09:07:44;93233.44;;;1.54;81.02
75219;BME280;63801;49.414;19.474;2022-12-07T09:09:46;93232.47;;;1.50;80.90
75219;BME280;63801;49.414;19.474;2022-12-07T09:11:46;93230.00;;;1.54;80.98
75219;BME280;63801;49.414;19.474;2022-12-07T09:13:46;93234.69;;;1.57;80.65
75219;BME280;63801;49.414;19.474;2022-12-07T09:15:47;93233.44;;;1.54;80.81
75219;BME280;63801;49.414;19.474;2022-12-07T09:17:47;93230.91;;;1.49;80.57
75219;BME280;63801;49.414;19.474;2022-12-07T09:19:47;93223.47;;;1.38;80.59
75219;BME280;63801;49.414;19.474;2022-12-07T09:21:48;93237.75;;;1.42;80.79
75219;BME280;63801;49.414;19.474;2022-12-07T09:23:48;93228.19;;;1.41;80.76
75219;BME280;63801;49.414;19.474;2022-12-07T09:25:48;93224.75;;;1.40;80.64
75219;BME280;63801;49.414;19.474;2022-12-07T09:27:55;93222.34;;;1.30;80.46
75219;BME280;63801;49.414;19.474;2022-12-07T09:29:55;93232.56;;;1.37;80.55
75219;BME280;63801;49.414;19.474;2022-12-07T09:31:56;93230.97;;;1.35;80.73
75219;BME280;63801;49.414;19.474;2022-12-07T09:33:58;93232.84;;;1.35;80.63
75219;BME280;63801;49.414;19.474;2022-12-07T09:35:59;93221.88;;;1.28;80.82
75219;BME280;63801;49.414;19.474;2022-12-07T09:37:59;93225.97;;;1.34;80.65
75219;BME280;63801;49.414;19.474;2022-12-07T09:40:00;93227.84;;;1.33;80.68
75219;BME280;63801;49.414;19.474;2022-12-07T09:42:03;93218.00;;;1.34;80.45
75219;BME280;63801;49.414;19.474;2022-12-07T09:44:06;93221.28;;;1.31;80.58
75219;BME280;63801;49.414;19.474;2022-12-07T09:46:13;93218.16;;;1.38;80.42
75219;BME280;63801;49.414;19.474;2022-12-07T09:48:20;93206.41;;;1.30;80.43
75219;BME280;63801;49.414;19.474;2022-12-07T09:50:23;93213.97;;;1.37;80.28
75219;BME280;63801;49.414;19.474;2022-12-07T09:52:28;93216.78;;;1.40;80.21
75219;BME280;63801;49.414;19.474;2022-12-07T09:54:29;93206.59;;;1.33;80.41
75219;BME280;63801;49.414;19.474;2022-12-07T09:56:30;93214.44;;;1.39;80.54
75219;BME280;63801;49.414;19.474;2022-12-07T09:58:32;93220.69;;;1.43;80.27
75219;BME280;63801;49.414;19.474;2022-12-07T10:00:33;93216.34;;;1.47;80.60
75219;BME280;63801;49.414;19.474;2022-12-07T10:02:35;93217.19;;;1.56;80.53
75219;BME280;63801;49.414;19.474;2022-12-07T10:04:37;93209.56;;;1.63;80.48
75219;BME280;63801;49.414;19.474;2022-12-07T10:06:38;93209.25;;;1.64;80.34
75219;BME280;63801;49.414;19.474;2022-12-07T10:08:38;93214.75;;;1.68;80.21
75219;BME280;63801;49.414;19.474;2022-12-07T10:10:41;93210.53;;;1.67;79.72
75219;BME280;63801;49.414;19.474;2022-12-07T10:12:59;93214.25;;;1.66;79.86
75219;BME280;63801;49.414;19.474;2022-12-07T10:15:03;93203.94;;;1.64;79.85
75219;BME280;63801;49.414;19.474;2022-12-07T10:17:35;93202.69;;;1.62;79.65
75219;BME280;63801;49.414;19.474;2022-12-07T10:19:36;93187.50;;;1.54;79.95
75219;BME280;63801;49.414;19.474;2022-12-07T10:21:36;93204.09;;;1.59;79.83
75219;BME280;63801;49.414;19.474;2022-12-07T10:23:39;93203.63;;;1.66;80.12
75219;BME280;63801;49.414;19.474;2022-12-07T10:25:39;93195.06;;;1.69;80.04
75219;BME280;63801;49.414;19.474;2022-12-07T10:27:40;93196.00;;;1.73;79.81
75219;BME280;63801;49.414;19.474;2022-12-07T10:29:51;93195.53;;;1.71;79.50
75219;BME280;63801;49.414;19.474;2022-12-07T10:32:02;93192.09;;;1.70;79.72
75219;BME280;63801;49.414;19.474;2022-12-07T10:34:02;93190.22;;;1.71;79.74
75219;BME280;63801;49.414;19.474;2022-12-07T10:36:35;93183.19;;;1.66;79.57
75219;BME280;63801;49.414;19.474;2022-12-07T10:39:03;93176.88;;;1.54;79.90
75219;BME280;63801;49.414;19.474;2022-12-07T10:41:06;93158.53;;;1.44;79.71
75219;BME280;63801;49.414;19.474;2022-12-07T10:45:17;93179.44;;;1.67;79.56
75219;BME280;63801;49.414;19.474;2022-12-07T10:47:29;93189.56;;;1.65;79.59
75219;BME280;63801;49.414;19.474;2022-12-07T10:50:00;93173.75;;;1.60;79.84
75219;BME280;63801;49.414;19.474;2022-12-07T10:56:29;93178.06;;;1.78;79.52
75219;BME280;63801;49.414;19.474;2022-12-07T11:01:03;93181.81;;;1.86;79.43
75219;BME280;63801;49.414;19.474;2022-12-07T11:03:30;93169.78;;;1.80;78.64
75219;BME280;63801;49.414;19.474;2022-12-07T11:05:54;93167.31;;;1.92;78.75
75219;BME280;63801;49.414;19.474;2022-12-07T11:08:15;93155.25;;;1.86;78.35
75219;BME280;63801;49.414;19.474;2022-12-07T11:10:31;93168.88;;;1.93;78.55
75219;BME280;63801;49.414;19.474;2022-12-07T11:15:17;93164.34;;;1.94;78.75
75219;BME280;63801;49.414;19.474;2022-12-07T11:27:19;93155.34;;;2.12;78.07
75219;BME280;63801;49.414;19.474;2022-12-07T11:29:49;93153.13;;;2.05;77.81
75219;BME280;63801;49.414;19.474;2022-12-07T11:34:12;93147.50;;;2.07;77.52
75219;BME280;63801;49.414;19.474;2022-12-07T11:36:45;93158.78;;;2.12;77.57
75219;BME280;63801;49.414;19.474;2022-12-07T11:41:35;93153.88;;;1.97;77.47